Time;durP1;ratioP1;P1;durP2;ratioP2;P2;SDS_P1;SDS_P2;PMS_P1;PMS_P2;Temp;Humidity;BMP_temperature;BMP_pressure;BME280_temperature;BME280_humidity;BME280_pressure;Samples;Min_cycle;Max_cycle;Signal;HPM_P1;HPM_P2
2021/06/07 00:01:50;;;;;;;8.73;7.80;;;;;;;13.70;91.13;101140.19;4978292;28;20202;-76
2021/06/07 00:04:16;;;;;;;7.90;7.10;;;;;;;13.58;89.83;101144.91;4975610;28;20292;-76
2021/06/07 00:06:42;;;;;;;8.57;7.60;;;;;;;13.65;92.58;101140.34;4963269;28;20629;-77
2021/06/07 00:09:12;;;;;;;10.57;8.07;;;;;;;13.65;92.50;101142.97;4972314;28;20507;-76
2021/06/07 00:11:40;;;;;;;9.00;7.33;;;;;;;13.68;91.79;101140.22;4973938;28;20216;-76
2021/06/07 00:14:07;;;;;;;13.57;8.03;;;;;;;13.52;90.62;101142.44;4977623;28;20206;-76
2021/06/07 00:16:34;;;;;;;8.67;7.47;;;;;;;13.50;92.83;101140.81;4957756;28;20231;-77
2021/06/07 00:19:00;;;;;;;8.43;7.50;;;;;;;13.49;91.85;101139.94;4976066;28;20209;-75
2021/06/07 00:21:29;;;;;;;9.33;7.73;;;;;;;13.38;91.03;101136.78;4980681;28;20203;-76
2021/06/07 00:23:57;;;;;;;8.00;7.10;;;;;;;13.40;91.57;101142.81;4975886;28;20263;-76
2021/06/07 00:26:25;;;;;;;9.10;8.13;;;;;;;13.43;92.92;101140.97;4959749;28;20511;-75
2021/06/07 00:28:52;;;;;;;8.57;7.50;;;;;;;13.34;92.16;101141.25;4978654;28;20217;-74
2021/06/07 00:31:18;;;;;;;10.10;8.07;;;;;;;13.26;92.34;101144.06;4962511;28;20294;-76
2021/06/07 00:33:45;;;;;;;11.10;8.03;;;;;;;13.16;92.54;101147.84;4961223;28;20258;-77
2021/06/07 00:36:12;;;;;;;9.90;8.27;;;;;;;13.15;93.38;101143.50;4971769;28;20293;-78
2021/06/07 00:38:38;;;;;;;11.93;9.20;;;;;;;13.07;92.37;101145.50;4980922;28;20522;-77
2021/06/07 00:41:08;;;;;;;10.50;8.20;;;;;;;13.14;93.84;101151.41;4965236;28;20675;-78
2021/06/07 00:43:36;;;;;;;8.90;8.00;;;;;;;13.17;94.60;101148.69;4977858;28;20207;-78
2021/06/07 00:46:02;;;;;;;9.77;8.77;;;;;;;13.18;94.41;101140.81;4979138;28;20287;-77
2021/06/07 00:48:28;;;;;;;10.07;9.07;;;;;;;13.15;93.88;101148.75;4964844;28;20608;-76
2021/06/07 00:50:56;;;;;;;10.80;8.57;;;;;;;13.04;93.81;101146.44;4963065;28;20206;-76
2021/06/07 00:53:23;;;;;;;10.00;8.80;;;;;;;13.06;94.82;101142.00;4980647;28;20192;-77
2021/06/07 00:55:54;;;;;;;9.13;7.87;;;;;;;13.01;93.82;101151.75;4978034;28;20236;-78
2021/06/07 00:58:22;;;;;;;10.50;8.63;;;;;;;12.94;93.91;101157.19;4983606;28;20208;-77
2021/06/07 01:00:50;;;;;;;10.67;9.13;;;;;;;12.85;94.11;101158.31;4987419;28;20203;-78
2021/06/07 01:03:17;;;;;;;9.37;8.37;;;;;;;12.88;95.22;101163.47;4975710;28;20543;-78
2021/06/07 01:05:44;;;;;;;9.73;8.43;;;;;;;12.95;95.41;101156.31;4961596;28;20230;-78
2021/06/07 01:08:10;;;;;;;9.50;8.20;;;;;;;12.91;94.61;101157.28;4979413;28;20603;-78
2021/06/07 01:10:36;;;;;;;9.87;8.60;;;;;;;12.85;94.60;101150.47;4984615;28;20222;-78
2021/06/07 01:13:02;;;;;;;12.23;9.30;;;;;;;12.73;94.63;101156.03;4986916;28;20766;-77
2021/06/07 01:15:28;;;;;;;10.47;9.13;;;;;;;12.68;96.13;101158.75;4967882;28;20312;-78
2021/06/07 01:17:56;;;;;;;13.57;10.17;;;;;;;12.64;96.44;101157.97;4985648;28;20198;-78
2021/06/07 01:20:22;;;;;;;10.77;8.83;;;;;;;12.71;97.23;101152.59;4984458;28;20202;-77
2021/06/07 01:22:51;;;;;;;11.20;8.83;;;;;;;12.71;96.11;101153.44;4985117;28;20198;-77
2021/06/07 01:25:20;;;;;;;9.63;8.63;;;;;;;12.74;97.34;101158.59;4982265;28;20232;-79
2021/06/07 01:27:47;;;;;;;10.13;8.53;;;;;;;12.64;95.87;101150.13;4967603;28;20209;-78
2021/06/07 01:30:17;;;;;;;10.63;8.87;;;;;;;12.61;96.68;101149.34;4982877;28;20243;-77
2021/06/07 01:32:43;;;;;;;10.20;9.10;;;;;;;12.50;95.97;101152.25;4988714;28;20209;-78
2021/06/07 01:35:11;;;;;;;10.33;9.33;;;;;;;12.53;98.18;101154.78;4982392;28;20226;-78
2021/06/07 01:37:38;;;;;;;11.27;9.00;;;;;;;12.60;98.96;101145.88;4980461;28;20204;-78
2021/06/07 01:40:09;;;;;;;10.97;9.87;;;;;;;12.54;97.47;101148.66;4983293;28;20202;-78
2021/06/07 01:42:35;;;;;;;10.77;9.63;;;;;;;12.37;96.46;101151.72;4979804;28;20194;-78
2021/06/07 01:45:01;;;;;;;11.23;9.73;;;;;;;12.32;97.00;101156.19;4983874;28;20596;-77
2021/06/07 01:47:27;;;;;;;10.50;9.07;;;;;;;12.33;97.94;101157.91;4982790;28;20235;-78
2021/06/07 01:49:53;;;;;;;10.50;9.20;;;;;;;12.36;98.53;101144.75;4983053;28;20518;-77
2021/06/07 01:52:19;;;;;;;10.80;9.23;;;;;;;12.27;96.80;101153.69;4986117;28;20225;-78
2021/06/07 01:54:45;;;;;;;11.00;9.43;;;;;;;12.23;97.59;101151.19;4980334;28;22422;-77
2021/06/07 01:57:12;;;;;;;9.60;8.60;;;;;;;12.17;97.69;101152.22;4983863;28;20205;-77
2021/06/07 01:59:38;;;;;;;10.47;9.27;;;;;;;12.35;99.72;101148.28;4970526;28;20772;-77
2021/06/07 02:02:05;;;;;;;11.20;8.80;;;;;;;12.27;98.51;101148.44;4982365;28;20224;-77
2021/06/07 02:04:32;;;;;;;11.53;9.13;;;;;;;12.27;98.81;101147.59;4983057;28;20342;-78
2021/06/07 02:06:58;;;;;;;11.20;9.27;;;;;;;12.10;98.09;101148.88;4983990;28;20224;-78
2021/06/07 02:09:24;;;;;;;11.67;9.70;;;;;;;11.98;97.78;101153.53;4986846;28;20225;-77
2021/06/07 02:11:50;;;;;;;11.00;9.03;;;;;;;11.98;99.20;101143.94;4984613;28;20824;-78
2021/06/07 02:14:18;;;;;;;11.50;9.80;;;;;;;12.11;100.00;101153.19;4985050;28;20197;-77
2021/06/07 02:16:44;;;;;;;10.40;9.17;;;;;;;11.99;99.15;101150.03;4984633;28;20225;-78
2021/06/07 02:19:11;;;;;;;12.00;9.53;;;;;;;11.88;98.70;101151.09;4985614;28;20197;-78
2021/06/07 02:21:38;;;;;;;11.63;9.73;;;;;;;11.78;98.64;101160.03;4964648;28;20228;-76
2021/06/07 02:24:06;;;;;;;10.87;8.93;;;;;;;11.89;100.00;101158.06;4991588;28;20663;-76
2021/06/07 02:26:32;;;;;;;11.93;9.93;;;;;;;11.78;99.18;101161.78;4981603;28;20232;-78
2021/06/07 02:29:02;;;;;;;14.13;10.43;;;;;;;11.67;99.00;101162.03;4991518;28;20289;-78
2021/06/07 02:31:30;;;;;;;11.90;9.87;;;;;;;11.71;100.00;101161.06;4985422;28;20554;-78
2021/06/07 02:33:57;;;;;;;13.87;10.63;;;;;;;11.68;100.00;101163.75;4982452;28;20189;-78
2021/06/07 02:36:26;;;;;;;11.43;9.50;;;;;;;11.71;100.00;101163.69;4985365;28;20221;-78
2021/06/07 02:38:53;;;;;;;11.93;10.60;;;;;;;11.83;100.00;101163.41;4983832;28;20677;-78
2021/06/07 02:41:20;;;;;;;13.40;10.50;;;;;;;11.66;99.91;101173.38;4989141;28;20228;-78
2021/06/07 02:43:47;;;;;;;11.17;9.53;;;;;;;11.62;100.00;101175.19;4990892;28;21570;-78
2021/06/07 02:46:13;;;;;;;12.37;10.50;;;;;;;11.62;100.00;101169.13;4970912;28;20700;-78
2021/06/07 02:48:40;;;;;;;12.13;10.30;;;;;;;11.63;100.00;101176.06;4992064;28;20193;-78
2021/06/07 02:51:06;;;;;;;13.27;11.10;;;;;;;11.57;100.00;101177.03;4989289;28;20327;-78
2021/06/07 02:53:32;;;;;;;12.47;10.53;;;;;;;11.54;100.00;101185.81;4987759;28;20196;-78
2021/06/07 02:55:59;;;;;;;12.77;10.30;;;;;;;11.55;100.00;101181.44;4987245;28;20232;-78
2021/06/07 02:58:25;;;;;;;12.13;10.83;;;;;;;11.47;100.00;101183.38;4988588;28;20204;-78
2021/06/07 03:00:53;;;;;;;12.77;10.33;;;;;;;11.37;100.00;101186.16;4988579;28;20668;-78
2021/06/07 03:03:20;;;;;;;13.07;10.83;;;;;;;11.40;100.00;101186.97;4990105;28;20197;-78
2021/06/07 03:05:50;;;;;;;17.50;10.43;;;;;;;11.39;100.00;101187.88;4988595;28;20233;-78
2021/06/07 03:08:18;;;;;;;12.97;10.60;;;;;;;11.34;100.00;101191.47;4990523;28;20212;-77
2021/06/07 03:10:48;;;;;;;14.10;10.73;;;;;;;11.41;100.00;101188.72;4986912;28;20688;-77
2021/06/07 03:13:15;;;;;;;12.13;10.67;;;;;;;11.49;100.00;101192.03;4991283;28;20193;-77
2021/06/07 03:15:41;;;;;;;11.93;10.00;;;;;;;11.38;100.00;101184.44;4988143;28;20632;-77
2021/06/07 03:18:07;;;;;;;11.37;10.17;;;;;;;11.45;100.00;101188.63;4977157;28;20268;-77
2021/06/07 03:20:35;;;;;;;11.73;10.47;;;;;;;11.50;100.00;101185.91;4990510;28;20259;-77
2021/06/07 03:23:04;;;;;;;13.33;10.60;;;;;;;11.50;100.00;101191.13;4971500;28;20708;-77
2021/06/07 03:25:31;;;;;;;12.87;10.43;;;;;;;11.57;100.00;101179.66;4990986;28;20809;-77
2021/06/07 03:27:58;;;;;;;13.40;11.07;;;;;;;11.50;100.00;101178.94;4990291;28;20205;-77
2021/06/07 03:30:25;;;;;;;14.20;11.87;;;;;;;11.58;100.00;101181.38;4991178;28;20216;-77
2021/06/07 03:32:52;;;;;;;12.37;10.73;;;;;;;11.59;100.00;101182.22;4990713;28;20201;-77
2021/06/07 03:35:19;;;;;;;12.00;10.70;;;;;;;11.68;100.00;101182.03;4989639;28;20229;-77
2021/06/07 03:37:46;;;;;;;12.60;11.03;;;;;;;11.84;100.00;101186.03;4987054;28;20553;-77
2021/06/07 03:40:18;;;;;;;13.97;11.40;;;;;;;11.83;100.00;101181.69;4988837;28;20197;-77
2021/06/07 03:42:45;;;;;;;16.70;11.83;;;;;;;11.89;100.00;101188.53;4984917;28;20209;-77
2021/06/07 03:45:14;;;;;;;14.77;11.50;;;;;;;11.78;100.00;101193.16;4989126;28;20232;-77
2021/06/07 03:47:40;;;;;;;14.00;12.20;;;;;;;11.86;100.00;101192.09;4985826;28;20201;-77
2021/06/07 03:50:08;;;;;;;16.33;12.33;;;;;;;11.78;100.00;101195.75;4970380;28;20308;-77
2021/06/07 03:52:34;;;;;;;16.13;13.30;;;;;;;11.92;100.00;101201.56;4967545;28;20213;-77
2021/06/07 03:55:01;;;;;;;18.37;14.10;;;;;;;11.98;100.00;101201.44;4986414;28;20213;-77
2021/06/07 03:57:29;;;;;;;17.40;13.90;;;;;;;12.03;100.00;101211.78;4968262;28;20240;-77
2021/06/07 03:59:54;;;;;;;18.43;14.33;;;;;;;12.03;100.00;101209.16;4985039;28;20212;-77
2021/06/07 04:02:21;;;;;;;16.33;14.07;;;;;;;12.08;100.00;101213.41;4987624;28;20197;-77
2021/06/07 04:04:47;;;;;;;16.50;13.83;;;;;;;12.20;100.00;101208.78;4985093;28;20287;-77
2021/06/07 04:07:13;;;;;;;16.73;14.63;;;;;;;12.25;100.00;101213.00;4987790;28;20295;-77
2021/06/07 04:09:41;;;;;;;15.43;13.60;;;;;;;12.46;100.00;101213.38;4982529;28;20213;-77
2021/06/07 04:12:07;;;;;;;17.90;14.70;;;;;;;12.57;100.00;101208.72;4972161;28;20312;-77
2021/06/07 04:14:35;;;;;;;18.17;14.83;;;;;;;12.75;100.00;101217.00;4979598;28;20558;-77
2021/06/07 04:17:01;;;;;;;21.43;15.27;;;;;;;12.88;100.00;101211.41;4989326;28;20461;-77
2021/06/07 04:19:27;;;;;;;19.10;14.57;;;;;;;12.90;100.00;101211.38;4972498;28;20599;-77
2021/06/07 04:21:53;;;;;;;17.73;15.47;;;;;;;13.03;100.00;101215.41;4989058;28;20228;-77
2021/06/07 04:24:19;;;;;;;19.27;15.27;;;;;;;13.21;100.00;101208.81;4985773;28;20244;-77
2021/06/07 04:26:45;;;;;;;17.83;14.77;;;;;;;13.36;99.82;101214.53;4984801;28;20250;-77
2021/06/07 04:29:11;;;;;;;17.00;13.33;;;;;;;13.52;99.47;101212.34;4981854;28;20244;-77
2021/06/07 04:31:38;;;;;;;18.70;15.00;;;;;;;13.73;98.89;101211.69;4983288;28;20209;-77
2021/06/07 04:34:04;;;;;;;17.10;14.53;;;;;;;13.83;96.97;101214.91;4984667;28;20595;-77
2021/06/07 04:36:30;;;;;;;18.93;14.53;;;;;;;13.92;96.22;101219.88;4988568;28;20426;-77
2021/06/07 04:38:56;;;;;;;15.80;14.10;;;;;;;14.03;95.37;101227.41;4983744;28;20197;-77
2021/06/07 04:41:22;;;;;;;17.77;14.57;;;;;;;14.15;95.07;101231.41;4972948;28;20211;-77
2021/06/07 04:43:48;;;;;;;14.73;13.17;;;;;;;14.19;93.53;101239.16;4986654;28;20231;-77
2021/06/07 04:46:14;;;;;;;16.77;14.37;;;;;;;14.36;93.86;101230.72;4992159;28;20812;-77
2021/06/07 04:48:41;;;;;;;16.30;12.90;;;;;;;14.50;92.68;101242.53;4988597;28;20237;-77
2021/06/07 04:51:07;;;;;;;16.60;13.40;;;;;;;14.58;91.27;101240.53;4992563;28;20218;-78
2021/06/07 04:53:34;;;;;;;14.70;11.70;;;;;;;14.68;90.09;101241.94;4988807;28;20208;-77
2021/06/07 04:56:00;;;;;;;15.87;12.20;;;;;;;14.75;88.07;101235.59;4990073;28;20540;-78
2021/06/07 04:58:28;;;;;;;13.23;10.50;;;;;;;14.85;87.48;101246.63;4988864;28;20255;-77
2021/06/07 05:00:57;;;;;;;11.30;10.10;;;;;;;14.94;85.53;101234.97;4990592;28;20664;-78
2021/06/07 05:03:25;;;;;;;12.20;10.00;;;;;;;15.07;85.22;101243.25;4987517;28;20278;-77
2021/06/07 05:05:53;;;;;;;12.90;9.97;;;;;;;15.20;84.92;101241.94;4986159;28;20759;-78
2021/06/07 05:08:19;;;;;;;11.30;9.00;;;;;;;15.33;83.24;101247.59;4991980;28;20209;-77
2021/06/07 05:10:45;;;;;;;11.23;8.53;;;;;;;15.41;82.73;101253.44;4985952;28;20225;-77
2021/06/07 05:13:11;;;;;;;12.83;8.97;;;;;;;15.50;81.05;101252.25;4970919;28;20197;-78
2021/06/07 05:15:38;;;;;;;9.80;8.50;;;;;;;15.47;81.01;101254.97;4988058;28;20292;-77
2021/06/07 05:18:04;;;;;;;9.30;8.30;;;;;;;15.39;81.34;101260.53;4984795;28;20451;-78
2021/06/07 05:20:30;;;;;;;8.67;7.77;;;;;;;15.42;82.43;101252.50;4986738;28;20200;-77
2021/06/07 05:22:59;;;;;;;10.20;7.97;;;;;;;15.32;81.80;101254.63;4990886;28;20193;-78
2021/06/07 05:25:26;;;;;;;9.53;7.73;;;;;;;15.29;82.39;101254.72;4986600;28;20700;-77
2021/06/07 05:27:54;;;;;;;8.83;7.90;;;;;;;15.25;80.89;101262.75;4991275;28;20282;-77
2021/06/07 05:30:22;;;;;;;8.87;7.97;;;;;;;15.30;81.51;101261.72;4989173;28;20222;-77
2021/06/07 05:32:48;;;;;;;9.23;8.00;;;;;;;15.34;82.25;101258.06;4990996;28;20546;-77
2021/06/07 05:35:16;;;;;;;9.10;8.20;;;;;;;15.50;82.11;101254.88;4985655;28;20283;-78
2021/06/07 05:37:43;;;;;;;10.87;7.87;;;;;;;15.53;80.83;101258.25;4988818;28;20890;-78
2021/06/07 05:40:13;;;;;;;9.33;7.60;;;;;;;15.61;81.26;101257.09;4987191;28;20219;-77
2021/06/07 05:42:39;;;;;;;10.17;7.80;;;;;;;15.78;80.45;101267.88;4987288;28;20212;-77
2021/06/07 05:45:08;;;;;;;9.37;7.80;;;;;;;16.00;79.08;101262.66;4985214;28;20246;-78
2021/06/07 05:47:35;;;;;;;8.00;7.20;;;;;;;16.15;77.58;101265.63;4988209;28;20201;-77
2021/06/07 05:50:01;;;;;;;7.93;7.13;;;;;;;16.43;79.71;101268.84;4987007;28;20248;-77
2021/06/07 05:52:27;;;;;;;7.60;6.80;;;;;;;16.62;77.38;101270.72;4971708;28;20208;-77
2021/06/07 05:54:53;;;;;;;8.10;6.60;;;;;;;16.71;75.10;101273.00;4977073;28;20228;-78
2021/06/07 05:57:21;;;;;;;9.23;7.20;;;;;;;16.81;75.35;101276.94;4988995;28;20658;-77
2021/06/07 05:59:46;;;;;;;8.13;6.07;;;;;;;16.88;74.56;101277.56;4970013;28;20194;-78
2021/06/07 06:02:14;;;;;;;7.10;6.33;;;;;;;17.02;73.97;101283.09;4982944;28;20228;-77
2021/06/07 06:04:40;;;;;;;7.40;6.60;;;;;;;17.16;74.04;101276.41;4986146;28;20191;-77
2021/06/07 06:07:07;;;;;;;6.40;5.73;;;;;;;17.30;72.17;101281.06;4987511;28;20197;-78
2021/06/07 06:09:34;;;;;;;6.73;5.70;;;;;;;17.42;72.11;101284.00;4984194;28;20225;-77
2021/06/07 06:12:00;;;;;;;6.57;5.87;;;;;;;17.25;71.10;101290.94;4982591;28;20742;-77
2021/06/07 06:14:28;;;;;;;5.93;5.33;;;;;;;17.14;71.19;101288.78;4987726;28;20197;-77
2021/06/07 06:16:54;;;;;;;7.07;6.00;;;;;;;17.14;70.71;101287.00;4986853;28;20244;-77
2021/06/07 06:19:23;;;;;;;6.80;5.30;;;;;;;17.26;69.96;101285.63;4988986;28;20260;-78
2021/06/07 06:21:49;;;;;;;6.57;5.67;;;;;;;17.52;70.27;101294.13;4971312;28;20212;-78
2021/06/07 06:24:15;;;;;;;5.80;5.20;;;;;;;17.70;69.36;101289.84;4984259;28;20205;-78
2021/06/07 06:26:41;;;;;;;6.97;5.47;;;;;;;17.91;70.37;101288.88;4984331;28;20264;-78
2021/06/07 06:29:08;;;;;;;7.43;5.83;;;;;;;17.96;68.06;101292.16;4988909;28;20836;-78
2021/06/07 06:31:35;;;;;;;7.20;5.67;;;;;;;18.03;68.07;101290.09;4973724;28;20272;-78
2021/06/07 06:34:02;;;;;;;8.67;5.40;;;;;;;18.07;66.95;101291.66;4997084;28;20211;-78
2021/06/07 06:36:29;;;;;;;6.07;5.47;;;;;;;18.23;64.95;101299.69;4972577;28;20236;-78
2021/06/07 06:38:55;;;;;;;6.00;5.40;;;;;;;18.46;66.90;101293.31;4966722;28;20197;-78
2021/06/07 06:41:21;;;;;;;11.87;5.43;;;;;;;18.58;64.88;101306.88;4990167;28;20210;-78
2021/06/07 06:43:47;;;;;;;5.80;5.30;;;;;;;18.70;64.87;101299.19;4989464;28;20194;-78
2021/06/07 06:46:14;;;;;;;5.20;4.70;;;;;;;18.79;64.35;101299.66;4990636;28;20321;-78
2021/06/07 06:48:41;;;;;;;6.27;5.30;;;;;;;18.68;63.87;101305.47;4990489;28;20205;-78
2021/06/07 06:51:08;;;;;;;7.40;5.47;;;;;;;18.68;63.64;101306.34;4990267;28;20787;-78
2021/06/07 06:53:34;;;;;;;7.23;5.20;;;;;;;18.82;63.30;101305.69;4985558;28;20213;-78
2021/06/07 06:55:59;;;;;;;6.13;5.53;;;;;;;18.85;63.78;101310.78;4990610;28;20315;-78
2021/06/07 06:58:25;;;;;;;5.90;4.83;;;;;;;19.06;64.52;101310.66;4988408;28;20692;-78
2021/06/07 07:00:51;;;;;;;5.77;5.27;;;;;;;19.13;62.37;101313.84;4988167;28;20201;-78
2021/06/07 07:03:19;;;;;;;5.87;4.90;;;;;;;19.25;63.38;101321.16;4987164;28;20206;-78
2021/06/07 07:05:48;;;;;;;5.30;4.53;;;;;;;19.31;62.33;101320.81;4972854;28;20222;-78
2021/06/07 07:08:15;;;;;;;6.07;4.60;;;;;;;19.47;61.65;101324.38;4986962;28;20193;-78
2021/06/07 07:10:43;;;;;;;6.37;4.53;;;;;;;19.54;60.63;101317.00;4992557;28;20232;-78
2021/06/07 07:13:09;;;;;;;5.23;4.43;;;;;;;19.63;60.24;101318.25;4991104;28;20209;-78
2021/06/07 07:15:36;;;;;;;4.87;4.30;;;;;;;19.78;60.05;101317.47;4990220;28;20365;-78
2021/06/07 07:18:03;;;;;;;6.20;4.43;;;;;;;19.90;58.68;101325.72;4989033;28;20210;-78
2021/06/07 07:20:29;;;;;;;5.67;4.30;;;;;;;19.97;59.80;101322.63;4991041;28;20201;-78
2021/06/07 07:22:56;;;;;;;5.33;4.20;;;;;;;20.04;58.99;101331.09;4973981;28;20205;-78
2021/06/07 07:25:22;;;;;;;5.37;4.27;;;;;;;20.00;58.29;101327.78;4990377;28;20219;-78
2021/06/07 07:27:48;;;;;;;5.40;4.43;;;;;;;20.11;58.49;101326.34;4983782;28;20208;-78
2021/06/07 07:30:17;;;;;;;5.83;4.57;;;;;;;20.25;58.18;101331.72;4989315;28;20229;-78
2021/06/07 07:32:45;;;;;;;4.70;4.20;;;;;;;20.32;61.54;101327.78;4985209;28;20209;-78
2021/06/07 07:35:12;;;;;;;4.90;4.00;;;;;;;20.55;58.57;101331.78;4990471;28;20225;-78
2021/06/07 07:37:39;;;;;;;5.00;4.50;;;;;;;20.66;55.28;101333.00;4985982;28;20291;-78
2021/06/07 07:40:08;;;;;;;4.43;4.03;;;;;;;20.80;55.80;101330.41;4991732;28;20219;-78
2021/06/07 07:42:35;;;;;;;4.73;4.23;;;;;;;21.06;59.33;101326.22;4987921;28;20204;-78
2021/06/07 07:45:03;;;;;;;4.90;4.20;;;;;;;21.21;54.31;101339.50;4990385;28;20224;-78
2021/06/07 07:47:29;;;;;;;4.33;3.93;;;;;;;21.41;55.27;101340.97;4970597;28;20454;-78
2021/06/07 07:49:56;;;;;;;4.30;3.90;;;;;;;21.46;53.95;101341.56;4987275;28;20217;-78
2021/06/07 07:52:23;;;;;;;5.97;3.80;;;;;;;21.64;54.58;101336.94;4989381;28;20205;-78
2021/06/07 07:54:49;;;;;;;4.60;3.80;;;;;;;21.83;56.11;101326.03;4987302;28;20676;-78
2021/06/07 07:57:17;;;;;;;6.63;4.00;;;;;;;21.85;55.07;101335.63;4990098;28;20201;-78
2021/06/07 07:59:44;;;;;;;5.30;3.93;;;;;;;21.97;53.36;101339.31;4978549;28;20213;-78
2021/06/07 08:02:10;;;;;;;4.33;3.93;;;;;;;22.04;52.08;101339.75;4982252;28;20221;-78
2021/06/07 08:04:37;;;;;;;4.03;3.63;;;;;;;22.27;52.10;101336.53;4965144;28;20300;-78
2021/06/07 08:07:04;;;;;;;4.40;4.00;;;;;;;22.20;51.07;101342.28;4984311;28;20201;-78
2021/06/07 08:09:31;;;;;;;4.03;3.47;;;;;;;22.20;52.83;101339.63;4966787;28;20239;-77
2021/06/07 08:11:57;;;;;;;3.77;3.47;;;;;;;22.16;52.40;101343.44;4984895;28;20213;-78
2021/06/07 08:14:24;;;;;;;3.70;3.40;;;;;;;22.17;53.01;101335.38;4986522;28;20224;-78
2021/06/07 08:16:50;;;;;;;4.10;3.70;;;;;;;22.20;53.03;101336.97;4994336;28;20212;-78
2021/06/07 08:19:16;;;;;;;5.23;3.80;;;;;;;22.29;52.57;101331.97;4984979;28;20323;-78
2021/06/07 08:21:42;;;;;;;5.10;3.80;;;;;;;22.37;50.90;101335.94;4993328;28;20201;-78
2021/06/07 08:24:08;;;;;;;4.27;3.70;;;;;;;22.46;51.74;101333.53;4975033;28;20685;-78
2021/06/07 08:26:34;;;;;;;4.07;3.67;;;;;;;22.71;51.32;101339.03;4991452;28;20220;-79
2021/06/07 08:29:01;;;;;;;5.13;3.88;;;;;;;22.86;48.38;101341.53;4989825;28;20193;-78
2021/06/07 08:31:28;;;;;;;5.85;3.63;;;;;;;22.88;52.15;101336.97;4980783;28;20811;-78
2021/06/07 08:33:54;;;;;;;4.35;3.20;;;;;;;23.04;51.71;101339.47;4985850;28;20208;-78
2021/06/07 08:36:20;;;;;;;4.15;3.75;;;;;;;23.09;50.18;101333.00;4992536;28;20307;-78
2021/06/07 08:38:46;;;;;;;3.53;3.22;;;;;;;23.10;48.43;101332.06;4989959;28;20209;-78
2021/06/07 08:41:13;;;;;;;3.92;3.53;;;;;;;23.14;51.59;101323.75;4989551;28;20217;-78
2021/06/07 08:43:39;;;;;;;3.90;3.60;;;;;;;23.15;49.38;101337.91;4989649;28;20202;-78
2021/06/07 08:46:05;;;;;;;3.45;3.15;;;;;;;23.12;48.78;101338.13;4990782;28;20295;-78
2021/06/07 08:48:32;;;;;;;4.40;3.50;;;;;;;23.27;51.45;101325.56;4988904;28;20206;-78
2021/06/07 08:51:01;;;;;;;3.55;3.25;;;;;;;23.30;50.61;101331.53;4991657;28;20229;-78
2021/06/07 08:53:27;;;;;;;3.88;3.47;;;;;;;23.18;46.47;101340.34;4988757;28;20224;-78
2021/06/07 08:55:54;;;;;;;4.35;3.20;;;;;;;23.40;47.66;101337.09;4989995;28;20240;-78
2021/06/07 08:58:20;;;;;;;4.70;3.25;;;;;;;23.43;47.57;101339.53;4985496;28;20261;-79
2021/06/07 09:00:46;;;;;;;4.82;2.72;;;;;;;23.29;47.18;101336.94;4985918;28;20217;-78
2021/06/07 09:03:14;;;;;;;3.25;2.95;;;;;;;23.50;48.39;101335.50;4986775;28;20209;-78
2021/06/07 09:05:44;;;;;;;3.40;3.05;;;;;;;23.61;50.18;101319.59;4980746;28;20248;-78
2021/06/07 09:08:12;;;;;;;3.38;3.05;;;;;;;23.78;46.77;101328.19;4982008;28;20209;-78
2021/06/07 09:10:40;;;;;;;3.70;2.70;;;;;;;23.82;42.29;101343.06;4971219;28;20217;-78
2021/06/07 09:13:08;;;;;;;3.20;2.90;;;;;;;24.07;43.59;101343.97;4992615;28;20235;-78
2021/06/07 09:15:37;;;;;;;4.22;2.85;;;;;;;23.92;45.67;101333.47;4988773;28;20222;-78
2021/06/07 09:18:05;;;;;;;3.75;3.17;;;;;;;23.75;46.68;101331.09;4987170;28;20221;-78
2021/06/07 09:20:32;;;;;;;3.63;2.75;;;;;;;23.68;46.50;101333.34;4990801;28;20213;-78
2021/06/07 09:23:02;;;;;;;2.97;2.78;;;;;;;23.88;46.39;101341.75;4991449;28;20209;-78
2021/06/07 09:25:29;;;;;;;2.70;2.38;;;;;;;23.73;41.31;101352.50;4984301;28;20241;-78
2021/06/07 09:28:08;;;;;;;2.70;2.40;;;;;;;23.87;44.01;101343.59;4989301;28;20735;-78
2021/06/07 09:30:36;;;;;;;5.18;2.63;;;;;;;24.18;41.06;101349.34;4990545;28;20624;-78
2021/06/07 09:33:16;;;;;;;4.05;2.53;;;;;;;24.33;42.35;101347.41;4992626;28;20239;-79
2021/06/07 09:35:44;;;;;;;2.92;2.55;;;;;;;24.49;41.35;101345.31;4985670;28;20223;-78
2021/06/07 09:38:12;;;;;;;5.00;2.40;;;;;;;24.43;41.08;101337.78;4988860;28;20244;-78
2021/06/07 09:40:38;;;;;;;2.60;2.40;;;;;;;24.64;41.22;101332.69;4972994;28;20288;-78
2021/06/07 09:43:05;;;;;;;2.60;2.40;;;;;;;24.84;39.25;101346.38;4986933;28;20201;-78
2021/06/07 09:45:40;;;;;;;2.30;2.10;;;;;;;24.85;37.61;101346.22;4989711;28;20304;-78
2021/06/07 09:48:11;;;;;;;2.20;2.00;;;;;;;25.12;39.39;101337.13;4987969;28;20197;-78
2021/06/07 09:50:37;;;;;;;2.03;1.70;;;;;;;25.14;40.36;101340.50;4983215;28;20716;-78
2021/06/07 09:53:03;;;;;;;1.75;1.65;;;;;;;24.99;35.26;101342.50;4984939;28;20924;-78
2021/06/07 09:55:31;;;;;;;1.80;1.67;;;;;;;25.36;37.08;101342.38;4976329;28;20251;-78
2021/06/07 09:58:00;;;;;;;2.53;2.00;;;;;;;25.35;37.00;101331.84;4987346;28;20209;-78
2021/06/07 10:00:40;;;;;;;3.22;2.10;;;;;;;25.36;37.97;101337.06;4990488;28;20213;-78
2021/06/07 10:03:17;;;;;;;3.15;1.83;;;;;;;25.42;40.16;101333.09;4981720;28;20737;-78
2021/06/07 10:05:43;;;;;;;1.90;1.80;;;;;;;25.66;39.52;101332.97;4985377;28;20224;-78
2021/06/07 10:08:09;;;;;;;2.33;1.95;;;;;;;25.72;37.18;101326.31;4986058;28;20224;-78
2021/06/07 10:10:36;;;;;;;2.45;1.77;;;;;;;25.87;36.04;101331.28;4985667;28;20245;-78
2021/06/07 10:13:06;;;;;;;2.22;2.03;;;;;;;25.83;40.60;101323.63;4985000;28;20631;-78
2021/06/07 10:15:34;;;;;;;2.50;2.30;;;;;;;25.49;36.11;101335.13;4980760;28;20535;-78
2021/06/07 10:18:02;;;;;;;3.33;1.80;;;;;;;25.08;38.04;101325.84;4968731;28;20190;-78
2021/06/07 10:20:48;;;;;;;2.22;2.03;;;;;;;25.01;37.53;101326.41;4986906;28;20606;-78
2021/06/07 10:23:15;;;;;;;1.90;1.80;;;;;;;24.74;37.30;101327.53;4986598;28;20248;-78
2021/06/07 10:25:42;;;;;;;2.97;1.88;;;;;;;24.60;38.39;101320.56;4983128;28;20221;-78
2021/06/07 10:28:08;;;;;;;2.13;1.90;;;;;;;24.55;39.03;101328.03;4987112;28;20216;-78
2021/06/07 10:30:39;;;;;;;3.38;2.20;;;;;;;24.41;36.03;101325.53;4982060;28;20263;-78
2021/06/07 10:33:24;;;;;;;2.00;1.80;;;;;;;24.26;37.19;101322.19;4987550;28;20576;-78
2021/06/07 10:35:50;;;;;;;2.15;2.00;;;;;;;24.20;39.80;101318.13;4967144;28;20255;-78
2021/06/07 10:38:28;;;;;;;2.42;2.20;;;;;;;24.16;38.76;101328.16;4989171;28;20248;-78
2021/06/07 10:41:16;;;;;;;2.13;1.88;;;;;;;24.13;38.62;101322.19;4982923;28;20573;-77
2021/06/07 10:43:44;;;;;;;2.55;1.90;;;;;;;23.96;38.92;101318.94;4986071;28;20209;-77
2021/06/07 10:46:24;;;;;;;2.78;2.13;;;;;;;23.88;38.76;101315.13;4984423;28;20279;-77
2021/06/07 10:48:52;;;;;;;3.53;2.28;;;;;;;23.70;37.38;101314.59;4966574;28;20197;-77
2021/06/07 10:51:20;;;;;;;2.10;1.90;;;;;;;23.65;38.51;101314.91;4985279;28;20217;-78
2021/06/07 10:53:46;;;;;;;2.80;2.42;;;;;;;23.61;37.80;101314.28;4984735;28;20202;-77
2021/06/07 10:56:14;;;;;;;2.28;2.00;;;;;;;23.73;38.53;101314.41;4988507;28;20687;-78
2021/06/07 10:58:51;;;;;;;2.33;2.13;;;;;;;23.84;42.24;101303.00;4982283;28;20595;-78
2021/06/07 11:01:17;;;;;;;2.17;1.98;;;;;;;23.77;37.71;101308.72;4975155;28;20234;-78
2021/06/07 11:03:54;;;;;;;2.92;2.10;;;;;;;23.94;38.02;101312.00;4980998;28;20267;-77
2021/06/07 11:06:20;;;;;;;2.95;2.50;;;;;;;23.95;39.82;101309.25;4983784;28;20600;-77
2021/06/07 11:09:01;;;;;;;3.47;2.35;;;;;;;23.81;38.22;101307.56;4980696;28;20208;-78
2021/06/07 11:11:47;;;;;;;2.92;2.20;;;;;;;24.01;43.94;101294.66;4957569;28;20256;-78
2021/06/07 11:14:14;;;;;;;2.25;2.05;;;;;;;24.33;39.39;101302.94;4978703;28;20551;-77
2021/06/07 11:16:43;;;;;;;2.50;2.13;;;;;;;24.72;38.45;101303.66;4979409;28;20240;-77
2021/06/07 11:19:10;;;;;;;2.35;2.15;;;;;;;24.99;38.17;101299.00;4987510;28;20205;-78
2021/06/07 11:21:38;;;;;;;2.20;2.10;;;;;;;25.14;38.19;101287.16;4981599;28;20209;-77